Time;durP1;ratioP1;P1;durP2;ratioP2;P2;SDS_P1;SDS_P2;PMS_P1;PMS_P2;Temp;Humidity;BMP_temperature;BMP_pressure;BME280_temperature;BME280_humidity;BME280_pressure;Samples;Min_cycle;Max_cycle;Signal;HPM_P1;HPM_P2
2024/03/20 00:01:33;;;;;;;25.25;12.35;;;77.50;2227.20;;;;;;4999698;28;20023;-72
2024/03/20 00:04:00;;;;;;;17.35;9.80;;;77.40;2227.20;;;;;;5001665;28;20114;-69
2024/03/20 00:06:26;;;;;;;12.27;7.13;;;77.40;2227.20;;;;;;5001364;28;20115;-70
2024/03/20 00:08:52;;;;;;;12.05;8.30;;;77.40;2227.20;;;;;;4999120;28;20464;-68
2024/03/20 00:11:17;;;;;;;16.40;8.23;;;77.30;2227.20;;;;;;4984708;28;20038;-69
2024/03/20 00:13:44;;;;;;;18.27;9.73;;;77.30;2227.20;;;;;;4996175;28;20105;-69
2024/03/20 00:16:10;;;;;;;14.38;8.00;;;77.30;2227.20;;;;;;5001732;28;20026;-69
2024/03/20 00:18:36;;;;;;;13.18;7.95;;;77.30;2227.20;;;;;;4994865;28;20042;-68
2024/03/20 00:21:03;;;;;;;15.05;8.13;;;77.30;2227.20;;;;;;4996557;28;20037;-69
2024/03/20 00:23:28;;;;;;;17.70;9.13;;;77.30;2227.20;;;;;;5002504;28;20057;-69
2024/03/20 00:25:54;;;;;;;16.05;8.27;;;77.20;2227.20;;;;;;5001147;28;20419;-69
2024/03/20 00:28:20;;;;;;;20.98;12.23;;;77.20;2227.20;;;;;;5006205;28;20541;-70
2024/03/20 00:30:46;;;;;;;17.67;10.32;;;77.20;2227.20;;;;;;5003394;28;20041;-68
2024/03/20 00:33:12;;;;;;;18.17;10.20;;;77.20;2227.20;;;;;;4995792;28;20560;-68
2024/03/20 00:35:38;;;;;;;16.20;9.07;;;77.10;2227.20;;;;;;5004729;28;20385;-70
2024/03/20 00:38:04;;;;;;;17.60;9.85;;;77.10;2227.20;;;;;;4976639;28;20038;-68
2024/03/20 00:40:30;;;;;;;15.73;9.40;;;77.10;2227.20;;;;;;4995940;28;20426;-68
2024/03/20 00:42:56;;;;;;;14.05;8.32;;;77.10;2227.20;;;;;;5006892;28;20030;-70
2024/03/20 00:45:22;;;;;;;39.22;22.67;;;77.10;2227.20;;;;;;5000823;28;20061;-68
2024/03/20 00:47:48;;;;;;;15.98;8.15;;;77.10;2227.20;;;;;;4999660;28;20404;-70
2024/03/20 00:50:14;;;;;;;25.27;14.55;;;77.10;2227.20;;;;;;4979848;28;20034;-68
2024/03/20 00:52:40;;;;;;;13.00;8.15;;;77.10;2227.20;;;;;;4995969;28;20041;-70
2024/03/20 00:55:09;;;;;;;14.00;7.90;;;77.10;2227.20;;;;;;5000968;28;20045;-67
2024/03/20 00:57:36;;;;;;;10.82;7.15;;;77.10;2227.20;;;;;;4997379;28;20046;-69
2024/03/20 01:00:02;;;;;;;17.13;9.48;;;77.10;2227.20;;;;;;4992884;28;20070;-68
2024/03/20 01:02:27;;;;;;;15.80;8.32;;;77.00;2227.20;;;;;;5000979;28;20064;-67
2024/03/20 01:04:53;;;;;;;16.77;9.57;;;76.90;2227.20;;;;;;5004749;28;20496;-68
2024/03/20 01:07:19;;;;;;;15.75;8.95;;;76.90;2227.20;;;;;;5001893;28;20049;-68
2024/03/20 01:09:45;;;;;;;16.17;8.88;;;76.90;2227.20;;;;;;4999371;28;20440;-68
2024/03/20 01:12:11;;;;;;;14.35;7.45;;;76.90;2227.20;;;;;;5005320;28;20029;-68
2024/03/20 01:14:37;;;;;;;12.60;6.80;;;77.20;2227.20;;;;;;5006438;28;20021;-68
2024/03/20 01:17:04;;;;;;;14.60;8.02;;;76.90;2227.20;;;;;;5007242;28;20034;-68
2024/03/20 01:19:30;;;;;;;13.40;7.63;;;76.90;2227.20;;;;;;5002853;28;20383;-66
2024/03/20 01:21:56;;;;;;;10.05;7.35;;;77.00;2227.20;;;;;;4994514;28;20027;-67
2024/03/20 01:24:22;;;;;;;16.75;8.05;;;77.00;2227.20;;;;;;5000096;28;20034;-66
2024/03/20 01:26:48;;;;;;;13.50;8.10;;;76.90;2227.20;;;;;;4991969;28;20376;-66
2024/03/20 01:29:14;;;;;;;13.07;7.35;;;77.00;2227.20;;;;;;4996974;28;20026;-70
2024/03/20 01:31:40;;;;;;;12.50;7.05;;;76.90;2227.20;;;;;;5000773;28;20038;-71
2024/03/20 01:34:06;;;;;;;11.85;6.28;;;76.90;2227.20;;;;;;4993249;28;20037;-68
2024/03/20 01:36:32;;;;;;;11.35;6.82;;;76.80;2227.20;;;;;;4998271;28;20456;-69
2024/03/20 01:38:58;;;;;;;13.98;8.18;;;76.90;2227.20;;;;;;5003360;28;20034;-67
2024/03/20 01:41:24;;;;;;;17.83;9.02;;;76.80;2227.20;;;;;;5001064;28;20026;-67
2024/03/20 01:43:54;;;;;;;18.08;8.95;;;76.80;2227.20;;;;;;5008846;28;20033;-69
2024/03/20 01:46:46;;;;;;;18.38;9.60;;;76.80;2227.20;;;;;;5006883;28;20037;-66
2024/03/20 01:49:12;;;;;;;21.08;10.63;;;76.80;2227.20;;;;;;4992750;28;20077;-67
2024/03/20 01:51:39;;;;;;;14.40;9.25;;;76.90;2227.20;;;;;;5005677;28;20023;-67
2024/03/20 01:54:05;;;;;;;15.00;8.23;;;76.80;2227.20;;;;;;4998431;28;20105;-68
2024/03/20 01:56:35;;;;;;;13.20;8.07;;;76.80;2227.20;;;;;;4998645;28;20049;-68
2024/03/20 01:59:01;;;;;;;15.20;8.05;;;76.80;2227.20;;;;;;4996604;28;20046;-67
2024/03/20 02:01:26;;;;;;;15.07;8.30;;;52.10;2227.20;;;;;;5002256;28;20034;-67
2024/03/20 02:03:52;;;;;;;12.35;7.05;;;52.10;2227.20;;;;;;5002611;28;20045;-67
2024/03/20 02:06:28;;;;;;;14.90;8.80;;;52.10;2227.20;;;;;;5005225;28;20480;-67
2024/03/20 02:08:56;;;;;;;13.23;7.15;;;52.00;2227.20;;;;;;5000912;28;20014;-67
2024/03/20 02:11:25;;;;;;;16.17;7.32;;;51.90;2227.20;;;;;;5011023;28;20033;-67
2024/03/20 02:13:52;;;;;;;11.48;6.63;;;51.80;2227.20;;;;;;4997314;28;20035;-69
2024/03/20 02:16:20;;;;;;;15.02;7.95;;;51.80;2227.20;;;;;;5004877;28;20041;-68
2024/03/20 02:18:48;;;;;;;13.82;7.90;;;51.70;2227.20;;;;;;4997710;28;20045;-68
2024/03/20 02:21:16;;;;;;;15.35;9.77;;;51.80;2227.20;;;;;;4998373;28;20029;-68
2024/03/20 02:23:42;;;;;;;12.73;7.60;;;51.80;2227.20;;;;;;4997986;28;20128;-67
2024/03/20 02:26:09;;;;;;;12.57;7.28;;;51.80;2227.20;;;;;;4997086;28;20113;-67
2024/03/20 02:28:39;;;;;;;13.57;7.18;;;52.00;2227.20;;;;;;5000783;28;20538;-67
2024/03/20 02:31:06;;;;;;;13.07;7.82;;;51.80;2227.20;;;;;;4998356;28;20049;-69
2024/03/20 02:33:32;;;;;;;15.32;8.73;;;51.80;2227.20;;;;;;4994241;28;20034;-67
2024/03/20 02:35:58;;;;;;;19.73;9.10;;;51.90;2227.20;;;;;;5003762;28;20032;-66
2024/03/20 02:38:30;;;;;;;19.13;9.32;;;51.90;2227.20;;;;;;4993573;28;20042;-68
2024/03/20 02:40:56;;;;;;;15.83;8.70;;;52.00;2227.20;;;;;;4997167;28;20022;-66
2024/03/20 02:43:23;;;;;;;33.10;18.40;;;52.00;2227.20;;;;;;5002907;28;20118;-67
2024/03/20 02:45:49;;;;;;;21.73;14.32;;;52.00;2227.20;;;;;;4997455;28;20076;-69
2024/03/20 02:48:15;;;;;;;17.38;11.43;;;52.00;2227.20;;;;;;5000414;28;20037;-68
2024/03/20 02:50:41;;;;;;;16.60;10.40;;;76.80;2227.20;;;;;;5005129;28;20058;-66
2024/03/20 02:53:07;;;;;;;20.15;12.23;;;76.80;2227.20;;;;;;4998389;28;20057;-69
2024/03/20 02:55:39;;;;;;;18.88;11.23;;;76.80;2227.20;;;;;;4992299;28;20039;-67
2024/03/20 02:58:05;;;;;;;12.82;7.93;;;76.80;2227.20;;;;;;4992944;28;20113;-67
2024/03/20 03:00:32;;;;;;;12.77;6.63;;;76.80;2227.20;;;;;;5002777;28;20038;-68
2024/03/20 03:02:58;;;;;;;13.40;7.75;;;52.10;2227.20;;;;;;5000667;28;20038;-67
2024/03/20 03:05:25;;;;;;;12.48;6.97;;;52.00;2227.20;;;;;;5001110;28;20073;-67
2024/03/20 03:07:52;;;;;;;11.02;5.53;;;52.00;2227.20;;;;;;4998995;28;20042;-66
2024/03/20 03:10:25;;;;;;;11.10;6.30;;;52.00;2227.20;;;;;;4997316;28;20156;-68
2024/03/20 03:12:52;;;;;;;8.98;4.97;;;51.80;2227.20;;;;;;5003988;28;20495;-68
2024/03/20 03:15:19;;;;;;;10.75;5.68;;;51.80;2227.20;;;;;;4995662;28;20481;-69
2024/03/20 03:17:54;;;;;;;13.48;8.65;;;51.80;2227.20;;;;;;4994859;28;20030;-67
2024/03/20 03:20:21;;;;;;;10.25;6.55;;;51.80;2227.20;;;;;;5002850;28;20046;-68
2024/03/20 03:22:47;;;;;;;12.18;6.60;;;51.90;2227.20;;;;;;4995017;28;20023;-67
2024/03/20 03:25:13;;;;;;;12.23;8.50;;;51.90;2227.20;;;;;;5003792;28;20472;-68
2024/03/20 03:27:40;;;;;;;8.25;4.88;;;52.00;2227.20;;;;;;5003982;28;20021;-66
2024/03/20 03:30:08;;;;;;;11.35;5.88;;;52.00;2227.20;;;;;;4997634;28;20042;-68
2024/03/20 03:32:37;;;;;;;8.10;4.93;;;51.90;2227.20;;;;;;5002321;28;20026;-67
2024/03/20 03:35:05;;;;;;;12.68;6.07;;;51.90;2227.20;;;;;;5003361;28;20034;-67
2024/03/20 03:37:31;;;;;;;10.88;6.28;;;51.90;2227.20;;;;;;4998184;28;20029;-69
2024/03/20 03:39:59;;;;;;;16.17;6.38;;;51.90;2227.20;;;;;;5002567;28;20445;-66
2024/03/20 03:42:26;;;;;;;10.35;6.00;;;51.90;2227.20;;;;;;4996391;28;20488;-69
2024/03/20 03:44:51;;;;;;;13.40;7.13;;;51.90;2227.20;;;;;;4997048;28;20073;-69
2024/03/20 03:47:17;;;;;;;90.60;50.85;;;51.80;2227.20;;;;;;5004768;28;20054;-68
2024/03/20 03:49:43;;;;;;;15.13;7.93;;;51.80;2227.20;;;;;;5004427;28;20041;-66
2024/03/20 03:52:09;;;;;;;11.90;6.47;;;51.80;2227.20;;;;;;5000903;28;20081;-66
2024/03/20 03:54:35;;;;;;;11.35;6.93;;;51.70;2227.20;;;;;;4997970;28;20073;-66
2024/03/20 03:57:01;;;;;;;9.90;6.13;;;51.70;2227.20;;;;;;5005111;28;20026;-69
2024/03/20 03:59:27;;;;;;;11.55;5.78;;;51.70;2227.20;;;;;;5004083;28;20396;-68
2024/03/20 04:01:53;;;;;;;10.73;6.00;;;51.60;2227.20;;;;;;4994979;28;20019;-67
2024/03/20 04:04:18;;;;;;;10.35;5.55;;;51.60;2227.20;;;;;;5004471;28;20030;-68
2024/03/20 04:06:44;;;;;;;15.55;7.50;;;51.60;2227.20;;;;;;5004439;28;20026;-68
2024/03/20 04:09:10;;;;;;;13.38;5.97;;;51.60;2227.20;;;;;;5000573;28;20046;-71
2024/03/20 04:11:37;;;;;;;11.48;6.07;;;51.70;2227.20;;;;;;5000687;28;20126;-68
2024/03/20 04:14:07;;;;;;;10.38;6.45;;;51.70;2227.20;;;;;;4997686;28;20037;-69
2024/03/20 04:16:34;;;;;;;10.32;6.45;;;51.70;2227.20;;;;;;5000280;28;20489;-74
2024/03/20 04:19:00;;;;;;;11.85;7.47;;;51.60;2227.20;;;;;;5001742;28;20046;-68
2024/03/20 04:21:26;;;;;;;11.77;7.38;;;51.50;2227.20;;;;;;4994363;28;20030;-68
2024/03/20 04:23:52;;;;;;;13.70;6.75;;;51.50;2227.20;;;;;;5002369;28;20466;-68
2024/03/20 04:26:19;;;;;;;11.60;6.65;;;51.50;2227.20;;;;;;4999508;28;20069;-71
2024/03/20 04:28:46;;;;;;;11.40;7.03;;;51.50;2227.20;;;;;;4997157;28;20041;-68
2024/03/20 04:31:15;;;;;;;12.10;6.22;;;51.50;2227.20;;;;;;4997248;28;20030;-70
2024/03/20 04:33:42;;;;;;;13.20;7.30;;;51.40;2227.20;;;;;;4993865;28;20038;-68
2024/03/20 04:36:09;;;;;;;12.27;7.43;;;51.40;2227.20;;;;;;4998598;28;20100;-69
2024/03/20 04:38:36;;;;;;;11.60;7.32;;;51.40;2227.20;;;;;;4995957;28;20074;-68
2024/03/20 04:41:04;;;;;;;16.33;7.10;;;51.40;2227.20;;;;;;4999766;28;20021;-68
2024/03/20 04:43:30;;;;;;;11.02;6.75;;;51.50;2227.20;;;;;;5004965;28;20058;-68
2024/03/20 04:45:56;;;;;;;11.95;5.85;;;51.40;2227.20;;;;;;4998989;28;20026;-68
2024/03/20 04:48:22;;;;;;;10.25;6.43;;;51.40;2227.20;;;;;;4994610;28;20053;-68
2024/03/20 04:50:48;;;;;;;14.05;6.97;;;51.50;2227.20;;;;;;5004623;28;20135;-69
2024/03/20 04:53:14;;;;;;;13.88;7.00;;;51.50;2227.20;;;;;;4999005;28;20069;-69
2024/03/20 04:55:40;;;;;;;12.68;7.38;;;51.50;2227.20;;;;;;4998258;28;20397;-68
2024/03/20 04:58:06;;;;;;;12.93;7.40;;;51.50;2227.20;;;;;;5004475;28;20038;-68
2024/03/20 05:00:31;;;;;;;12.50;7.25;;;51.60;2227.20;;;;;;5004329;28;20038;-69
2024/03/20 05:02:58;;;;;;;17.73;7.13;;;51.60;2227.20;;;;;;4997130;28;20081;-68
2024/03/20 05:05:23;;;;;;;13.43;8.32;;;51.70;2227.20;;;;;;5000174;28;20066;-68
2024/03/20 05:07:49;;;;;;;14.57;7.65;;;51.70;2227.20;;;;;;4998717;28;20054;-68
2024/03/20 05:10:16;;;;;;;13.13;7.88;;;51.80;2227.20;;;;;;4986652;28;20104;-68
2024/03/20 05:12:42;;;;;;;13.35;7.90;;;51.90;2227.20;;;;;;4997760;28;20061;-71
2024/03/20 05:15:08;;;;;;;15.60;8.60;;;52.10;2227.20;;;;;;4998101;28;20030;-70
2024/03/20 05:17:34;;;;;;;14.23;8.70;;;76.80;2227.20;;;;;;5000532;28;20052;-68
2024/03/20 05:20:00;;;;;;;17.92;11.95;;;76.90;2227.20;;;;;;5001978;28;20081;-70
2024/03/20 05:22:26;;;;;;;16.25;9.95;;;77.00;2227.20;;;;;;4995416;28;20034;-69
2024/03/20 05:24:52;;;;;;;12.18;7.35;;;77.10;2227.20;;;;;;4994306;28;20033;-68
2024/03/20 05:27:18;;;;;;;13.30;7.30;;;77.30;2227.20;;;;;;5000497;28;20023;-70
2024/03/20 05:29:45;;;;;;;17.65;10.40;;;77.30;2227.20;;;;;;5002051;28;20432;-69
2024/03/20 05:32:11;;;;;;;12.68;6.97;;;77.40;2227.20;;;;;;5001594;28;20495;-68
2024/03/20 05:34:37;;;;;;;11.23;7.70;;;77.40;2227.20;;;;;;4999199;28;20037;-66
2024/03/20 05:37:03;;;;;;;15.35;8.27;;;77.40;2227.20;;;;;;4997118;28;20401;-67
2024/03/20 05:39:29;;;;;;;13.48;6.90;;;77.40;2227.20;;;;;;4996287;28;20042;-67
2024/03/20 05:41:55;;;;;;;13.85;6.90;;;77.40;2227.20;;;;;;5004147;28;20563;-67
2024/03/20 05:44:24;;;;;;;14.90;7.82;;;77.40;2227.20;;;;;;5003518;28;20116;-67
2024/03/20 05:46:51;;;;;;;11.48;7.30;;;77.40;2227.20;;;;;;4998373;28;20083;-68
2024/03/20 05:49:20;;;;;;;12.63;7.13;;;77.50;2227.20;;;;;;4997149;28;20049;-67
2024/03/20 05:51:48;;;;;;;16.77;8.93;;;77.70;2227.20;;;;;;4999470;28;20372;-69
2024/03/20 05:54:14;;;;;;;16.38;7.82;;;103.30;2227.20;;;;;;4999103;28;20029;-67
2024/03/20 05:56:40;;;;;;;14.13;7.72;;;128.30;2252.80;;;;;;4996744;28;20109;-67
2024/03/20 05:59:06;;;;;;;12.45;7.55;;;103.30;2227.20;;;;;;5006857;28;20121;-67
2024/03/20 06:01:32;;;;;;;12.45;7.22;;;103.30;2227.20;;;;;;4998833;28;20037;-67
2024/03/20 06:03:58;;;;;;;24.08;15.07;;;103.30;2227.20;;;;;;4999616;28;20397;-67
2024/03/20 06:06:27;;;;;;;13.50;7.40;;;128.00;2252.80;;;;;;5008329;28;20068;-67
2024/03/20 06:08:53;;;;;;;13.85;7.60;;;128.60;2252.80;;;;;;5003874;28;20026;-68
2024/03/20 06:11:19;;;;;;;11.60;7.13;;;205.70;2150.40;;;;;;5000080;28;20030;-71
2024/03/20 06:13:49;;;;;;;14.82;7.22;;;282.10;1920.00;;;;;;4994728;28;20089;-68
2024/03/20 06:16:15;;;;;;;10.57;7.75;;;333.30;1766.40;;;;;;4999886;28;20108;-69
2024/03/20 06:18:40;;;;;;;11.10;8.63;;;359.10;1664.00;;;;;;5002984;28;20120;-72
2024/03/20 06:21:08;;;;;;;12.65;9.85;;;409.60;1587.20;;;;;;4992773;28;20026;-69
2024/03/20 06:23:34;;;;;;;13.30;10.48;;;410.40;1536.00;;;;;;4992505;28;20500;-68
2024/03/20 06:26:00;;;;;;;31.40;22.95;;;435.60;1484.80;;;;;;4999616;28;20120;-68
2024/03/20 06:28:26;;;;;;;32.38;23.30;;;460.90;1459.20;;;;;;5015692;28;20029;-68
2024/03/20 06:30:54;;;;;;;28.98;21.58;;;486.40;1408.00;;;;;;4998168;28;20038;-68
2024/03/20 06:33:20;;;;;;;21.50;18.52;;;486.90;1356.80;;;;;;4991923;28;20070;-70
2024/03/20 06:35:52;;;;;;;34.13;26.52;;;512.20;1331.20;;;;;;5016827;28;20547;-68
2024/03/20 06:38:19;;;;;;;31.00;23.73;;;512.80;1280.00;;;;;;5001997;28;20104;-68
2024/03/20 06:40:45;;;;;;;31.73;24.42;;;538.00;1305.60;;;;;;4999508;28;20041;-68
2024/03/20 06:43:11;;;;;;;23.33;16.25;;;538.50;1254.40;;;;;;5005748;28;20023;-68
2024/03/20 06:45:42;;;;;;;31.50;24.55;;;564.00;1254.40;;;;;;4992404;28;20076;-68
2024/03/20 06:48:08;;;;;;;36.20;27.58;;;588.80;1228.80;;;;;;4995098;28;20022;-70
2024/03/20 06:50:35;;;;;;;35.00;27.80;;;588.90;1228.80;;;;;;4996121;28;20022;-69
2024/03/20 06:53:04;;;;;;;33.45;27.00;;;563.60;1254.40;;;;;;4993272;28;20030;-69
2024/03/20 06:55:31;;;;;;;30.75;24.45;;;589.20;1228.80;;;;;;4996203;28;20025;-68
2024/03/20 06:57:58;;;;;;;28.80;25.65;;;589.20;1203.20;;;;;;5000553;28;20045;-68
2024/03/20 07:00:25;;;;;;;33.53;30.00;;;563.60;1228.80;;;;;;5000998;28;20030;-68
2024/03/20 07:02:53;;;;;;;38.75;34.20;;;589.00;1203.20;;;;;;5005025;28;20476;-69
2024/03/20 07:05:19;;;;;;;33.58;29.08;;;614.50;1177.60;;;;;;4999738;28;20101;-70
2024/03/20 07:07:45;;;;;;;31.30;27.55;;;640.20;1126.40;;;;;;4995144;28;20031;-69
2024/03/20 07:10:12;;;;;;;29.02;25.95;;;640.70;1126.40;;;;;;4992998;28;20382;-69
2024/03/20 07:12:38;;;;;;;22.30;19.98;;;691.20;1100.80;;;;;;4999243;28;20026;-69
2024/03/20 07:15:11;;;;;;;25.65;22.90;;;691.60;1049.60;;;;;;4996940;28;20034;-69
2024/03/20 07:17:38;;;;;;;27.70;21.10;;;717.20;1049.60;;;;;;5001145;28;20109;-70
2024/03/20 07:20:11;;;;;;;27.98;24.98;;;742.40;1049.60;;;;;;4995472;28;20381;-69
2024/03/20 07:22:37;;;;;;;24.15;21.55;;;742.90;1024.00;;;;;;4997416;28;20080;-70
2024/03/20 07:25:07;;;;;;;22.17;18.75;;;768.00;998.40;;;;;;4996893;28;20026;-71
2024/03/20 07:27:33;;;;;;;26.13;22.92;;;742.70;998.40;;;;;;5002962;28;20030;-70
2024/03/20 07:30:00;;;;;;;21.33;18.63;;;743.10;1024.00;;;;;;5002835;28;20400;-68
2024/03/20 07:32:27;;;;;;;24.48;21.90;;;742.70;998.40;;;;;;4996808;28;20129;-70
2024/03/20 07:34:53;;;;;;;24.08;19.17;;;768.40;972.80;;;;;;4996623;28;20111;-72
2024/03/20 07:37:19;;;;;;;29.10;23.80;;;793.70;972.80;;;;;;5004078;28;20030;-72
2024/03/20 07:39:44;;;;;;;21.90;19.60;;;794.30;947.20;;;;;;4992938;28;20105;-71
2024/03/20 07:42:10;;;;;;;23.35;21.25;;;794.20;947.20;;;;;;4973263;28;20096;-73
2024/03/20 07:44:36;;;;;;;15.93;12.43;;;819.50;896.00;;;;;;5009175;28;20033;-72
2024/03/20 07:47:05;;;;;;;13.77;12.48;;;820.10;870.40;;;;;;5005668;28;20473;-72
2024/03/20 07:49:34;;;;;;;12.88;11.57;;;844.80;870.40;;;;;;4997516;28;20042;-72
2024/03/20 07:52:00;;;;;;;10.88;9.75;;;844.90;896.00;;;;;;5005144;28;20484;-73
2024/03/20 07:54:27;;;;;;;9.32;8.45;;;845.40;844.80;;;;;;5001223;28;20026;-72
2024/03/20 07:56:56;;;;;;;16.58;13.30;;;845.70;844.80;;;;;;5012194;28;20022;-72
2024/03/20 07:59:23;;;;;;;11.77;10.45;;;870.50;819.20;;;;;;5014450;28;20133;-71
2024/03/20 08:01:50;;;;;;;12.68;11.02;;;871.00;793.60;;;;;;5014712;28;20025;-71
2024/03/20 08:04:16;;;;;;;11.35;10.35;;;870.70;819.20;;;;;;5010998;28;20048;-73
2024/03/20 08:06:42;;;;;;;11.32;10.23;;;844.90;819.20;;;;;;5003090;28;20031;-72
2024/03/20 08:09:08;;;;;;;10.27;9.35;;;819.40;844.80;;;;;;5008907;28;20094;-75
2024/03/20 08:11:35;;;;;;;9.57;8.65;;;794.10;844.80;;;;;;4999594;28;20104;-73
2024/03/20 08:14:10;;;;;;;12.88;11.68;;;819.70;844.80;;;;;;4988026;28;20034;-72
2024/03/20 08:16:37;;;;;;;10.25;9.05;;;844.80;870.40;;;;;;4999744;28;20033;-72
2024/03/20 08:19:04;;;;;;;49.42;44.38;;;845.50;819.20;;;;;;5008599;28;20103;-73
2024/03/20 08:21:31;;;;;;;61.45;54.95;;;870.50;819.20;;;;;;5006651;28;20514;-72
2024/03/20 08:23:58;;;;;;;59.90;54.25;;;870.90;793.60;;;;;;5001368;28;20027;-72
2024/03/20 08:26:24;;;;;;;58.85;45.70;;;871.20;793.60;;;;;;4997760;28;20042;-72
2024/03/20 08:28:50;;;;;;;57.22;41.22;;;871.30;768.00;;;;;;5010207;28;20088;-71
2024/03/20 08:31:16;;;;;;;26.55;22.23;;;896.50;768.00;;;;;;4993933;28;20050;-72
2024/03/20 08:33:44;;;;;;;14.57;13.07;;;896.60;742.40;;;;;;5001811;28;20034;-69
2024/03/20 08:36:10;;;;;;;23.85;21.27;;;896.80;742.40;;;;;;5000617;28;20025;-71
2024/03/20 08:38:36;;;;;;;21.40;17.60;;;870.70;793.60;;;;;;4994166;28;20121;-71
2024/03/20 08:41:18;;;;;;;18.38;15.02;;;871.30;793.60;;;;;;4995622;28;20058;-72
2024/03/20 08:43:44;;;;;;;20.30;18.23;;;896.20;768.00;;;;;;4995612;28;20042;-72
2024/03/20 08:46:10;;;;;;;14.02;12.65;;;871.10;768.00;;;;;;4995575;28;20027;-74
2024/03/20 08:48:36;;;;;;;22.98;19.90;;;871.00;768.00;;;;;;4995304;28;20084;-72
2024/03/20 08:51:03;;;;;;;32.65;28.85;;;870.50;793.60;;;;;;4995252;28;20200;-71
2024/03/20 08:53:32;;;;;;;61.05;52.75;;;870.90;793.60;;;;;;4995522;28;20049;-71
2024/03/20 08:56:06;;;;;;;11.15;10.05;;;870.90;793.60;;;;;;4996225;28;20536;-70
2024/03/20 08:58:33;;;;;;;16.65;15.05;;;870.50;793.60;;;;;;4978414;28;20039;-71
2024/03/20 09:01:01;;;;;;;15.82;14.20;;;844.80;819.20;;;;;;4996473;28;20046;-72
2024/03/20 09:03:31;;;;;;;37.50;31.58;;;794.00;844.80;;;;;;4997762;28;20125;-71
2024/03/20 09:05:58;;;;;;;57.53;51.42;;;742.50;870.40;;;;;;4998921;28;20018;-72
2024/03/20 09:08:27;;;;;;;34.35;29.58;;;666.30;947.20;;;;;;4981814;28;20038;-72
2024/03/20 09:10:53;;;;;;;19.15;17.13;;;640.80;972.80;;;;;;4984512;28;20042;-71
2024/03/20 09:13:19;;;;;;;12.40;11.10;;;614.60;998.40;;;;;;4995505;28;20030;-76
2024/03/20 09:15:45;;;;;;;32.50;28.63;;;563.70;1075.20;;;;;;5007504;28;20049;-71
2024/03/20 09:18:10;;;;;;;17.67;14.20;;;538.40;1075.20;;;;;;5014456;28;20076;-70
2024/03/20 09:20:40;;;;;;;36.10;22.73;;;537.80;1100.80;;;;;;4998163;28;20384;-69
2024/03/20 09:23:07;;;;;;;23.38;16.33;;;512.30;1100.80;;;;;;4999125;28;20040;-69
2024/03/20 09:25:33;;;;;;;28.95;25.35;;;487.00;1152.00;;;;;;5000585;28;20025;-71
2024/03/20 09:28:00;;;;;;;28.60;21.15;;;461.50;1203.20;;;;;;5005706;28;20125;-70
2024/03/20 09:30:26;;;;;;;19.23;14.38;;;461.10;1203.20;;;;;;4999274;28;20129;-71
2024/03/20 09:32:52;;;;;;;23.75;15.77;;;460.80;1228.80;;;;;;4999857;28;20100;-70
2024/03/20 09:35:20;;;;;;;14.95;12.40;;;435.90;1228.80;;;;;;4996951;28;20042;-70
2024/03/20 09:37:46;;;;;;;32.83;24.30;;;435.50;1254.40;;;;;;4994457;28;20447;-71
2024/03/20 09:40:16;;;;;;;15.02;11.13;;;435.50;1280.00;;;;;;4995083;28;20062;-70
2024/03/20 09:42:43;;;;;;;13.43;11.25;;;435.60;1254.40;;;;;;5000038;28;20380;-71
2024/03/20 09:45:13;;;;;;;88.22;48.35;;;435.50;1280.00;;;;;;4999839;28;20030;-72
2024/03/20 09:47:39;;;;;;;66.47;35.35;;;410.40;1280.00;;;;;;4998533;28;20029;-71
2024/03/20 09:50:12;;;;;;;31.88;20.73;;;435.20;1305.60;;;;;;5000067;28;20026;-70
2024/03/20 09:52:38;;;;;;;;;;;435.30;1305.60;;;;;;5000554;28;20030;-70
2024/03/20 09:55:07;;;;;;;15.70;11.73;;;435.30;1280.00;;;;;;5003016;28;19956;-71
2024/03/20 09:57:33;;;;;;;35.20;22.10;;;435.30;1280.00;;;;;;5002088;28;20025;-71
2024/03/20 10:00:00;;;;;;;39.20;24.42;;;435.30;1280.00;;;;;;5000968;28;20030;-70
2024/03/20 10:02:29;;;;;;;20.90;15.20;;;410.30;1280.00;;;;;;5000052;28;20108;-72
2024/03/20 10:04:55;;;;;;;68.60;39.55;;;410.00;1305.60;;;;;;4992032;28;20354;-72
2024/03/20 10:07:21;;;;;;;21.88;13.88;;;410.00;1305.60;;;;;;5001752;28;20014;-71
2024/03/20 10:09:47;;;;;;;20.45;14.50;;;409.70;1331.20;;;;;;4998775;28;20030;-71
2024/03/20 10:12:15;;;;;;;19.25;13.77;;;384.90;1331.20;;;;;;4979260;28;20042;-71
2024/03/20 10:14:42;;;;;;;38.38;21.52;;;384.30;1356.80;;;;;;5006731;28;20474;-71
2024/03/20 10:17:15;;;;;;;17.55;11.95;;;384.60;1356.80;;;;;;5000230;28;20465;-72
2024/03/20 10:19:41;;;;;;;;;;;384.40;1382.40;;;;;;5001938;28;20472;-71
2024/03/20 10:22:08;;;;;;;18.17;11.15;;;384.60;1382.40;;;;;;5001428;28;19917;-71
2024/03/20 10:24:35;;;;;;;18.00;11.73;;;384.40;1356.80;;;;;;4996228;28;20033;-71
2024/03/20 10:27:02;;;;;;;40.75;26.00;;;384.40;1382.40;;;;;;4999226;28;20038;-71
2024/03/20 10:29:29;;;;;;;16.67;12.27;;;384.50;1356.80;;;;;;5003009;28;20112;-72
2024/03/20 10:31:57;;;;;;;25.30;16.58;;;384.70;1382.40;;;;;;5001187;28;20101;-73
2024/03/20 10:34:24;;;;;;;31.35;19.73;;;384.90;1382.40;;;;;;4999245;28;20499;-73
2024/03/20 10:36:51;;;;;;;23.30;15.93;;;409.60;1382.40;;;;;;5004579;28;20052;-70
2024/03/20 10:39:17;;;;;;;20.55;13.68;;;384.90;1356.80;;;;;;4996317;28;20046;-71
2024/03/20 10:41:56;;;;;;;12.60;9.55;;;384.90;1382.40;;;;;;5002906;28;20108;-70
2024/03/20 10:44:23;;;;;;;18.33;13.00;;;384.90;1433.60;;;;;;5000851;28;20483;-70
2024/03/20 10:46:52;;;;;;;17.90;12.13;;;409.60;1433.60;;;;;;4998383;28;20026;-69
2024/03/20 10:49:23;;;;;;;16.08;10.45;;;384.90;1382.40;;;;;;4996700;28;20065;-75
2024/03/20 10:51:51;;;;;;;24.65;18.73;;;384.80;1433.60;;;;;;5000121;28;20104;-70
2024/03/20 10:54:18;;;;;;;12.70;8.95;;;384.80;1459.20;;;;;;4998766;28;20034;-70
2024/03/20 10:56:44;;;;;;;14.10;10.27;;;384.60;1510.40;;;;;;4993943;28;20018;-69
2024/03/20 10:59:19;;;;;;;13.95;10.13;;;384.40;1510.40;;;;;;4997304;28;20045;-68
2024/03/20 11:02:05;;;;;;;17.38;12.45;;;384.30;1484.80;;;;;;4993030;28;20022;-69
2024/03/20 11:04:42;;;;;;;28.23;17.40;;;384.50;1484.80;;;;;;5000581;28;20069;-70
2024/03/20 11:07:30;;;;;;;38.55;24.33;;;384.60;1433.60;;;;;;4992470;28;20027;-68
2024/03/20 11:10:02;;;;;;;22.08;14.00;;;384.70;1433.60;;;;;;5000225;28;20030;-69
2024/03/20 11:12:38;;;;;;;24.83;14.88;;;384.50;1408.00;;;;;;5000705;28;20519;-69
2024/03/20 11:15:05;;;;;;;18.65;14.43;;;384.40;1433.60;;;;;;5004231;28;20476;-71
2024/03/20 11:17:36;;;;;;;19.90;14.23;;;384.50;1433.60;;;;;;4999686;28;20022;-69
2024/03/20 11:20:09;;;;;;;16.35;10.10;;;384.40;1433.60;;;;;;5000965;28;20041;-69
2024/03/20 11:22:36;;;;;;;14.57;9.23;;;384.40;1433.60;;;;;;5003231;28;20029;-70
2024/03/20 11:25:04;;;;;;;14.77;10.18;;;384.10;1433.60;;;;;;4997992;28;20030;-71
2024/03/20 11:27:32;;;;;;;16.55;9.35;;;359.30;1433.60;;;;;;5005627;28;20018;-68
2024/03/20 11:29:58;;;;;;;15.02;9.60;;;359.20;1433.60;;;;;;5007204;28;20518;-68
2024/03/20 11:32:24;;;;;;;83.28;50.42;;;359.10;1433.60;;;;;;5004530;28;20487;-69
2024/03/20 11:34:50;;;;;;;15.55;9.93;;;359.20;1433.60;;;;;;4979863;28;20045;-68
2024/03/20 11:37:16;;;;;;;14.23;10.35;;;359.30;1433.60;;;;;;5003813;28;20464;-71
2024/03/20 11:39:43;;;;;;;14.35;9.68;;;359.30;1433.60;;;;;;4996254;28;20030;-68
2024/03/20 11:42:15;;;;;;;14.77;9.52;;;359.30;1433.60;;;;;;4996203;28;20032;-67
2024/03/20 11:44:42;;;;;;;16.10;11.10;;;359.30;1433.60;;;;;;5005324;28;20121;-66
2024/03/20 11:47:12;;;;;;;15.38;9.60;;;359.20;1433.60;;;;;;5001959;28;20117;-67
2024/03/20 11:49:42;;;;;;;16.63;11.02;;;384.00;1459.20;;;;;;4997928;28;20037;-69
2024/03/20 11:52:16;;;;;;;15.50;10.30;;;384.10;1459.20;;;;;;5002203;28;20033;-68
2024/03/20 11:54:46;;;;;;;14.68;10.10;;;384.10;1459.20;;;;;;5003855;28;20108;-69
2024/03/20 11:57:13;;;;;;;15.75;11.40;;;384.30;1459.20;;;;;;4980347;28;20026;-70
2024/03/20 11:59:50;;;;;;;17.55;9.63;;;384.30;1484.80;;;;;;5004047;28;20045;-69
2024/03/20 12:02:24;;;;;;;15.07;10.10;;;384.30;1459.20;;;;;;5006707;28;20033;-68
2024/03/20 12:04:52;;;;;;;13.30;9.50;;;384.20;1433.60;;;;;;4997597;28;20076;-74
2024/03/20 12:07:29;;;;;;;13.75;9.50;;;384.30;1433.60;;;;;;5001979;28;20477;-70
2024/03/20 12:09:56;;;;;;;14.23;9.38;;;384.30;1433.60;;;;;;5004500;28;20375;-70
2024/03/20 12:12:24;;;;;;;11.73;8.68;;;384.20;1433.60;;;;;;5005351;28;20030;-70